Time;durP1;ratioP1;P1;durP2;ratioP2;P2;SDS_P1;SDS_P2;PMS_P1;PMS_P2;Temp;Humidity;BMP_temperature;BMP_pressure;BME280_temperature;BME280_humidity;BME280_pressure;Samples;Min_cycle;Max_cycle;Signal;HPM_P1;HPM_P2
2023/03/07 16:29:19;;;;;;;2.83;2.05;;;3.10;99.90;;;;;;5029049;28;20609;-69
2023/03/07 16:31:45;;;;;;;4.80;2.58;;;3.10;99.90;;;;;;5028833;28;20048;-65
2023/03/07 16:34:17;;;;;;;2.97;2.50;;;3.10;99.90;;;;;;5028702;28;20017;-72
2023/03/07 16:36:43;;;;;;;2.70;2.15;;;3.20;99.90;;;;;;5021343;28;20017;-69
2023/03/07 16:39:09;;;;;;;5.88;2.25;;;3.30;99.90;;;;;;5031086;28;20034;-68
2023/03/07 16:41:43;;;;;;;3.22;2.22;;;3.30;99.90;;;;;;5046831;28;20033;-67
2023/03/07 16:44:15;;;;;;;3.42;2.22;;;3.40;99.90;;;;;;5039371;28;20034;-67
2023/03/07 16:46:41;;;;;;;3.95;2.38;;;3.50;99.90;;;;;;5021714;28;20029;-69
2023/03/07 16:49:14;;;;;;;3.92;1.83;;;3.50;99.90;;;;;;5026469;28;20096;-67
2023/03/07 16:51:39;;;;;;;4.13;2.00;;;3.50;99.90;;;;;;5024092;28;20018;-69
2023/03/07 16:54:06;;;;;;;3.97;2.35;;;3.50;99.90;;;;;;5026699;28;20084;-69
2023/03/07 16:56:37;;;;;;;7.72;3.55;;;3.50;99.90;;;;;;5025490;28;20020;-66
2023/03/07 16:59:03;;;;;;;7.68;3.88;;;3.50;99.90;;;;;;5026058;28;20032;-66
2023/03/07 17:01:28;;;;;;;7.05;3.50;;;3.50;99.90;;;;;;5027502;28;20025;-69
2023/03/07 17:03:55;;;;;;;8.80;4.18;;;3.50;99.90;;;;;;5044712;28;20036;-70
2023/03/07 17:06:21;;;;;;;5.22;3.13;;;3.50;99.90;;;;;;5045778;28;20024;-67
2023/03/07 17:08:49;;;;;;;7.20;3.53;;;3.50;99.90;;;;;;5045849;28;20029;-68
2023/03/07 17:11:21;;;;;;;6.40;3.10;;;3.50;99.90;;;;;;5046514;28;20075;-69
2023/03/07 17:13:49;;;;;;;3.90;2.60;;;3.40;99.90;;;;;;5062501;28;20033;-69
2023/03/07 17:16:16;;;;;;;3.97;2.50;;;3.40;99.90;;;;;;5045650;28;20036;-70
2023/03/07 17:18:42;;;;;;;6.78;2.33;;;3.40;99.90;;;;;;5027706;28;20029;-68
2023/03/07 17:21:16;;;;;;;3.67;2.22;;;3.40;99.90;;;;;;5043568;28;20014;-67
2023/03/07 17:23:43;;;;;;;3.28;2.45;;;3.30;99.90;;;;;;5046263;28;20068;-70
2023/03/07 17:26:20;;;;;;;6.20;2.38;;;3.30;99.90;;;;;;5044753;28;20369;-67
2023/03/07 17:28:46;;;;;;;2.90;2.00;;;3.30;99.90;;;;;;5062791;28;20194;-67
2023/03/07 17:31:11;;;;;;;4.53;2.20;;;3.30;99.90;;;;;;5059163;28;20490;-68
2023/03/07 17:33:37;;;;;;;7.38;3.92;;;3.20;99.90;;;;;;5059453;28;20020;-74
2023/03/07 17:36:02;;;;;;;3.10;2.38;;;3.20;99.90;;;;;;5065894;28;20104;-68
2023/03/07 17:38:28;;;;;;;2.38;1.98;;;3.20;99.90;;;;;;5027510;28;20028;-73
2023/03/07 17:40:55;;;;;;;5.95;2.10;;;3.20;99.90;;;;;;5033790;28;20053;-68
2023/03/07 17:43:21;;;;;;;4.25;2.55;;;3.30;99.90;;;;;;5033156;28;20095;-68
2023/03/07 17:45:47;;;;;;;3.65;2.60;;;3.30;99.90;;;;;;5032397;28;20026;-70
2023/03/07 17:48:13;;;;;;;3.78;2.67;;;3.30;99.90;;;;;;5048579;28;20026;-73
2023/03/07 17:50:40;;;;;;;4.68;2.70;;;3.30;99.90;;;;;;5033408;28;20013;-67
2023/03/07 17:53:05;;;;;;;6.97;3.25;;;3.30;99.90;;;;;;5032573;28;20025;-68
2023/03/07 17:55:31;;;;;;;3.70;3.00;;;3.20;99.90;;;;;;5047318;28;20429;-68
2023/03/07 17:57:57;;;;;;;7.22;2.88;;;3.20;99.90;;;;;;5040847;28;20029;-71
2023/03/07 18:00:23;;;;;;;6.00;3.30;;;3.10;99.90;;;;;;5031523;28;20018;-69
2023/03/07 18:02:49;;;;;;;6.53;3.22;;;3.10;99.90;;;;;;5019934;28;20101;-68
2023/03/07 18:05:15;;;;;;;6.97;3.58;;;3.10;99.90;;;;;;5031694;28;20485;-69
2023/03/07 18:07:40;;;;;;;7.18;3.80;;;3.00;99.90;;;;;;5041428;28;20512;-73
2023/03/07 18:10:08;;;;;;;8.45;4.60;;;3.00;99.90;;;;;;5052781;28;20184;-74
2023/03/07 18:12:34;;;;;;;6.40;3.55;;;3.00;99.90;;;;;;5033229;28;20020;-71
2023/03/07 18:15:00;;;;;;;5.80;3.28;;;3.00;99.90;;;;;;5052981;28;20139;-69
2023/03/07 18:17:25;;;;;;;7.88;3.50;;;3.00;99.90;;;;;;5052255;28;20517;-68
2023/03/07 18:19:51;;;;;;;7.65;3.58;;;3.00;99.90;;;;;;5052360;28;20029;-68
2023/03/07 18:22:17;;;;;;;5.95;3.58;;;3.00;99.90;;;;;;5051621;28;20133;-69
2023/03/07 18:24:44;;;;;;;5.78;3.17;;;3.00;99.90;;;;;;5033115;28;20025;-71
2023/03/07 18:27:10;;;;;;;5.95;3.53;;;3.10;99.90;;;;;;5051976;28;20049;-70
2023/03/07 18:29:36;;;;;;;5.55;3.30;;;3.00;99.90;;;;;;5034604;28;20028;-71
2023/03/07 18:32:01;;;;;;;4.47;1.92;;;3.00;99.90;;;;;;5020582;28;20030;-75
2023/03/07 18:34:27;;;;;;;1.25;1.15;;;2.90;99.90;;;;;;5031391;28;20368;-70
2023/03/07 18:36:53;;;;;;;2.28;1.17;;;2.60;99.90;;;;;;5013891;28;20028;-70
2023/03/07 18:39:20;;;;;;;2.35;1.38;;;2.30;99.90;;;;;;5014672;28;20021;-70
2023/03/07 18:41:47;;;;;;;2.45;1.40;;;2.00;99.90;;;;;;5033993;28;20025;-72
2023/03/07 18:44:13;;;;;;;3.40;1.40;;;1.90;99.90;;;;;;5047157;28;20116;-72
2023/03/07 18:46:38;;;;;;;2.42;1.70;;;1.70;99.90;;;;;;5032113;28;20113;-71
2023/03/07 18:49:04;;;;;;;3.38;1.83;;;1.70;99.90;;;;;;5031430;28;20038;-73
2023/03/07 18:51:30;;;;;;;1.50;1.40;;;1.60;99.90;;;;;;5032367;28;20518;-74
2023/03/07 18:53:58;;;;;;;2.80;1.67;;;1.60;99.90;;;;;;5032330;28;20045;-70
2023/03/07 18:56:24;;;;;;;2.30;1.30;;;1.60;99.90;;;;;;5013612;28;20013;-69
2023/03/07 18:58:54;;;;;;;2.75;1.20;;;1.70;99.90;;;;;;5032594;28;20021;-74
2023/03/07 19:01:25;;;;;;;4.28;1.80;;;1.70;99.90;;;;;;5014387;28;20172;-70
2023/03/07 19:03:53;;;;;;;4.93;2.33;;;1.70;99.90;;;;;;5031262;28;20036;-70
2023/03/07 19:06:21;;;;;;;11.20;4.53;;;1.60;99.90;;;;;;5013314;28;20120;-70
2023/03/07 19:08:47;;;;;;;5.47;2.67;;;1.60;99.90;;;;;;5013699;28;20094;-69
2023/03/07 19:11:13;;;;;;;2.40;1.70;;;1.40;99.90;;;;;;5031116;28;20029;-67
2023/03/07 19:13:39;;;;;;;3.33;2.10;;;1.30;99.90;;;;;;5014464;28;20116;-68
2023/03/07 19:16:26;;;;;;;2.72;2.15;;;1.30;99.90;;;;;;5035224;28;20028;-67
2023/03/07 19:18:53;;;;;;;3.13;2.10;;;1.20;99.90;;;;;;5050920;28;20017;-70
2023/03/07 19:21:25;;;;;;;8.30;3.58;;;1.20;99.90;;;;;;5036159;28;20493;-67
2023/03/07 19:23:52;;;;;;;9.77;3.75;;;1.10;99.90;;;;;;5031187;28;20037;-67
2023/03/07 19:26:19;;;;;;;5.22;2.30;;;1.10;99.90;;;;;;5042792;28;20025;-68
2023/03/07 19:28:46;;;;;;;8.00;3.13;;;1.10;99.90;;;;;;5031630;28;20401;-68
2023/03/07 19:31:20;;;;;;;7.10;2.25;;;1.10;99.90;;;;;;5040391;28;20347;-74
2023/03/07 19:33:47;;;;;;;3.70;1.92;;;1.00;99.90;;;;;;5052856;28;20025;-75
2023/03/07 19:36:25;;;;;;;7.38;3.10;;;1.00;99.90;;;;;;5034788;28;20434;-68
2023/03/07 19:38:53;;;;;;;5.22;2.90;;;1.00;99.90;;;;;;5051088;28;20017;-67
2023/03/07 19:41:21;;;;;;;4.97;3.20;;;0.90;99.90;;;;;;5052748;28;20061;-72
2023/03/07 19:43:48;;;;;;;6.43;3.13;;;0.90;99.90;;;;;;5035977;28;20032;-71
2023/03/07 19:46:15;;;;;;;6.13;2.83;;;0.90;99.90;;;;;;5030559;28;20122;-69
2023/03/07 19:48:42;;;;;;;5.68;3.42;;;0.80;99.90;;;;;;5031036;28;20030;-67
2023/03/07 19:51:16;;;;;;;5.60;3.20;;;0.80;99.90;;;;;;5032247;28;20438;-69
2023/03/07 19:53:44;;;;;;;7.47;3.53;;;0.80;99.90;;;;;;5030643;28;20037;-69
2023/03/07 19:56:19;;;;;;;4.82;2.88;;;0.80;99.90;;;;;;5032453;28;20540;-69
2023/03/07 19:58:44;;;;;;;3.80;2.40;;;0.80;99.90;;;;;;5010642;28;20042;-70
2023/03/07 20:01:12;;;;;;;4.07;1.92;;;0.80;99.90;;;;;;5011475;28;20025;-71
2023/03/07 20:03:38;;;;;;;3.97;1.60;;;0.80;99.90;;;;;;5012012;28;20025;-75
2023/03/07 20:06:06;;;;;;;5.43;1.80;;;0.70;99.90;;;;;;4993509;28;20021;-69
2023/03/07 20:08:33;;;;;;;2.85;1.88;;;0.70;99.90;;;;;;5026935;28;20399;-71
2023/03/07 20:11:16;;;;;;;3.33;1.80;;;0.70;99.90;;;;;;5012320;28;20026;-69
2023/03/07 20:13:47;;;;;;;5.93;2.85;;;0.70;99.90;;;;;;4994103;28;20018;-69
2023/03/07 20:16:14;;;;;;;2.70;2.37;;;0.70;99.90;;;;;;5011988;28;20494;-72
2023/03/07 20:18:40;;;;;;;6.07;2.65;;;0.70;99.90;;;;;;5033753;28;20017;-75
2023/03/07 20:21:12;;;;;;;3.65;2.30;;;0.70;99.90;;;;;;5050179;28;20029;-70
2023/03/07 20:23:41;;;;;;;3.40;1.80;;;0.60;99.90;;;;;;5033451;28;20044;-69
2023/03/07 20:26:18;;;;;;;3.35;1.98;;;0.60;99.90;;;;;;5050583;28;20034;-74
